Airfield :
LOGIN :

Register | Disclaimer

   EN    FR    IT 

 










Legend :    VFR   Marginal VFR   IFR   Intensive IFR   Very Intensive IFR
Visi :
Ceiling :
>= 8 km
>= 3000ft
5 to 8 km
1000 to 3000 ft
1500m to 5 km
500 to 1000 ft
800 to 1500m
200 to 500 ft
< 800m
< 200 ft
Symbols :   Thunderstorms  Fog  Heavy snow  Heavy precipitations  Wind > 20 kt
SIGMETs :     Misc.  Thunderstorms  Icing  Turbulence  Mountain Waves  Volcanic Ashes







- Airport Elevation : 117 ft
- IATA code : NWI
- Download approach charts


EGSH - Norwich

CURRENT METAR :
  • 201520Z 08007KT 060V120 9999 FEW022 17/10 Q1022 NOSIG

EXPIRED METARs :
  • 201450Z 09008KT 060V120 9999 FEW010 17/11 Q1022
  • 201420Z 11006KT 070V180 9999 FEW010 18/12 Q1022
  • 201350Z 10005KT 050V160 9999 FEW010 17/10 Q1022 NOSIG
  • 201320Z 10005KT 050V140 9999 FEW010 18/10 Q1022 NOSIG
  • 201250Z VRB03KT CAVOK 17/10 Q1023 NOSIG

TAF TAF EGSH
Valid from the 20 at 15:00 until the 21 at 00:00 UTC


201403Z 2015/2024 13005KT 9999 FEW010
BECMG 2018/2020 8000
PROB30
TEMPO 2018/2020 0800 FG BKN001
BECMG 2020/2023 0300 FG OVC001
ATIS : +44 1603 420 640
No reported NOTAMs for that airfield.



MET'MAP, your aeronautical weather chart ! - Copyright ORBIFLY December 2007 - Disclaimer

ORBIFLY MET'MAP TEAM :

Programming & Development : Alexandra Zaïnal
Concept & Development : Baudouin d'Aumeries
Co-Development & Prog : Marc-Olivier Méhu
Technical & hardware support : Manuel Goepfert

Contact : metmap@orbifly.com




SOURCES & CREDITS :

   NOAA